createdAt,value
2022-09-03T00:01:04.128Z,14.65
2022-09-03T00:03:44.598Z,14.59
2022-09-03T00:06:17.598Z,14.55
2022-09-03T00:08:52.890Z,14.61
2022-09-03T00:11:51.594Z,14.56
2022-09-03T00:14:25.051Z,14.49
2022-09-03T00:16:58.221Z,14.50
2022-09-03T00:19:29.189Z,14.51
2022-09-03T00:22:03.433Z,14.51
2022-09-03T00:24:34.748Z,14.51
2022-09-03T00:27:03.806Z,14.44
2022-09-03T00:29:40.223Z,14.40
2022-09-03T00:32:11.942Z,14.38
2022-09-03T00:34:41.341Z,14.43
2022-09-03T00:37:14.494Z,14.40
2022-09-03T00:39:42.494Z,14.48
2022-09-03T00:42:29.333Z,14.46
2022-09-03T00:45:06.610Z,14.39
2022-09-03T00:47:52.995Z,14.51
2022-09-03T00:50:35.820Z,14.44
2022-09-03T00:53:23.243Z,14.47
2022-09-03T00:55:58.484Z,14.56
2022-09-03T00:58:43.875Z,14.57
2022-09-03T01:01:58.143Z,14.55
2022-09-03T01:04:42.079Z,14.58
2022-09-03T01:07:34.121Z,14.54
2022-09-03T01:10:27.979Z,14.54
2022-09-03T01:13:02.167Z,14.59
2022-09-03T01:15:59.743Z,14.70
2022-09-03T01:18:34.530Z,14.75
2022-09-03T01:21:26.790Z,14.73
2022-09-03T01:24:34.703Z,14.81
2022-09-03T01:27:18.507Z,14.95
2022-09-03T01:30:04.141Z,14.84
2022-09-03T01:32:49.029Z,14.89
2022-09-03T01:35:24.291Z,14.84
2022-09-03T01:38:13.146Z,14.71
2022-09-03T01:41:25.817Z,14.64
2022-09-03T01:44:22.216Z,14.70
2022-09-03T01:46:52.260Z,14.66
2022-09-03T01:49:41.289Z,14.59
2022-09-03T01:52:13.605Z,14.46
2022-09-03T01:55:02.476Z,14.55
2022-09-03T01:57:56.151Z,14.43
2022-09-03T02:00:23.176Z,14.31
2022-09-03T02:02:51.869Z,14.37
2022-09-03T02:05:27.463Z,14.26
2022-09-03T02:08:08.071Z,14.31
2022-09-03T02:10:40.544Z,14.23
2022-09-03T02:13:22.386Z,14.27
2022-09-03T02:15:50.543Z,14.08
2022-09-03T02:18:21.007Z,14.30
2022-09-03T02:20:48.762Z,13.86
2022-09-03T02:23:16.019Z,13.68
2022-09-03T02:25:45.610Z,13.94
2022-09-03T02:28:17.622Z,14.06
2022-09-03T02:30:44.558Z,14.09
2022-09-03T02:33:11.303Z,14.01
2022-09-03T02:35:38.008Z,13.92
2022-09-03T02:38:17.011Z,13.88
2022-09-03T02:40:44.392Z,13.66
2022-09-03T02:43:16.464Z,13.71
2022-09-03T02:45:47.394Z,13.85
2022-09-03T02:48:17.108Z,13.84
2022-09-03T02:50:43.878Z,13.83
2022-09-03T02:53:10.426Z,13.78
2022-09-03T02:55:38.663Z,13.73
2022-09-03T02:58:06.840Z,13.57
2022-09-03T03:00:33.574Z,13.75
2022-09-03T03:03:00.102Z,13.73
2022-09-03T03:05:38.383Z,13.70
2022-09-03T03:08:04.950Z,13.49
2022-09-03T03:10:31.789Z,13.45
2022-09-03T03:12:58.628Z,13.35
2022-09-03T03:15:25.294Z,13.24
2022-09-03T03:17:51.783Z,13.39
2022-09-03T03:20:18.324Z,13.41
2022-09-03T03:22:44.846Z,13.47
2022-09-03T03:25:11.497Z,13.48
2022-09-03T03:27:39.789Z,13.34
2022-09-03T03:30:10.181Z,13.16
2022-09-03T03:32:37.614Z,13.17
2022-09-03T03:35:05.414Z,13.11
2022-09-03T03:37:33.066Z,13.26
2022-09-03T03:39:59.814Z,13.59
2022-09-03T03:42:26.384Z,13.59
2022-09-03T03:44:52.995Z,13.51
2022-09-03T03:47:19.504Z,13.50
2022-09-03T03:49:46.008Z,13.52
2022-09-03T03:52:12.548Z,13.46
2022-09-03T03:54:39.063Z,13.65
2022-09-03T03:57:05.606Z,13.69
2022-09-03T03:59:32.110Z,13.77
2022-09-03T04:01:58.642Z,13.65
2022-09-03T04:04:25.280Z,13.70
2022-09-03T04:06:51.784Z,13.61
2022-09-03T04:09:18.788Z,13.57
2022-09-03T04:11:45.490Z,13.60
2022-09-03T04:14:12.001Z,13.59
2022-09-03T04:16:38.590Z,13.60
2022-09-03T04:19:05.493Z,13.59
2022-09-03T04:21:31.996Z,13.53
2022-09-03T04:23:59.197Z,13.59
2022-09-03T04:26:31.296Z,13.56
2022-09-03T04:29:08.229Z,13.79
2022-09-03T04:31:35.958Z,13.95
2022-09-03T04:34:02.869Z,13.96
2022-09-03T04:36:30.934Z,14.01
2022-09-03T04:39:00.186Z,14.11
2022-09-03T04:41:29.093Z,14.19
2022-09-03T04:43:57.399Z,14.22
2022-09-03T04:46:26.226Z,14.33
2022-09-03T04:48:54.875Z,14.29
2022-09-03T04:51:27.403Z,14.15
2022-09-03T04:53:59.046Z,14.14
2022-09-03T04:56:31.345Z,14.10
2022-09-03T04:59:01.467Z,14.23
2022-09-03T05:01:30.261Z,14.33
2022-09-03T05:03:57.914Z,14.33
2022-09-03T05:06:28.580Z,14.28
2022-09-03T05:08:55.684Z,14.28
2022-09-03T05:11:23.160Z,14.30
2022-09-03T05:13:52.054Z,14.34
2022-09-03T05:16:18.893Z,14.57
2022-09-03T05:18:46.947Z,14.59
2022-09-03T05:21:18.153Z,14.63
2022-09-03T05:23:46.919Z,14.62
2022-09-03T05:26:18.650Z,14.68
2022-09-03T05:28:45.874Z,14.72
2022-09-03T05:31:14.571Z,14.68
2022-09-03T05:33:51.561Z,14.77
2022-09-03T05:36:20.300Z,14.85
2022-09-03T05:38:47.912Z,14.93
2022-09-03T05:41:16.392Z,14.99
2022-09-03T05:43:45.652Z,15.06
2022-09-03T05:46:18.507Z,15.17
2022-09-03T05:48:45.037Z,15.23
2022-09-03T05:51:16.617Z,15.23
2022-09-03T05:53:44.764Z,15.29
2022-09-03T05:56:18.049Z,15.32
2022-09-03T05:58:49.660Z,15.37
2022-09-03T06:01:18.763Z,15.43
2022-09-03T06:03:46.599Z,15.41
2022-09-03T06:06:13.976Z,15.47
2022-09-03T06:08:41.449Z,15.55
2022-09-03T06:11:08.458Z,15.50
2022-09-03T06:13:35.486Z,15.66
2022-09-03T06:16:06.526Z,15.68
2022-09-03T06:18:33.094Z,15.70
2022-09-03T06:21:01.607Z,15.79
2022-09-03T06:23:29.390Z,15.79
2022-09-03T06:26:14.591Z,15.82
2022-09-03T06:28:43.475Z,15.89
2022-09-03T06:31:12.740Z,16.03
2022-09-03T06:33:40.294Z,16.11
2022-09-03T06:36:09.801Z,16.19
2022-09-03T06:38:37.627Z,16.27
2022-09-03T06:41:05.626Z,16.34
2022-09-03T06:43:34.796Z,16.37
2022-09-03T06:46:03.944Z,16.46
2022-09-03T06:48:32.021Z,16.86
2022-09-03T06:51:10.062Z,16.70
2022-09-03T06:53:38.422Z,16.67
2022-09-03T06:56:10.854Z,16.74
2022-09-03T06:58:43.176Z,16.75
2022-09-03T07:01:14.509Z,16.75
2022-09-03T07:03:42.767Z,17.05
2022-09-03T07:06:14.379Z,17.24
2022-09-03T07:08:42.942Z,17.34
2022-09-03T07:11:12.043Z,17.76
2022-09-03T07:13:44.865Z,17.92
2022-09-03T07:16:17.280Z,17.75
2022-09-03T07:18:44.467Z,18.16
2022-09-03T07:21:13.700Z,18.38
2022-09-03T07:23:41.515Z,18.21
2022-09-03T07:26:16.465Z,18.22
2022-09-03T07:28:44.054Z,18.35
2022-09-03T07:31:25.650Z,18.91
2022-09-03T07:33:56.453Z,18.70
2022-09-03T07:36:24.153Z,18.53
2022-09-03T07:38:51.272Z,18.52
2022-09-03T07:41:23.919Z,18.52
2022-09-03T07:43:55.156Z,19.21
2022-09-03T07:46:23.926Z,19.27
2022-09-03T07:48:55.375Z,18.94
2022-09-03T07:51:26.713Z,18.85
2022-09-03T07:53:57.975Z,18.74
2022-09-03T07:56:24.909Z,19.09
2022-09-03T07:58:51.659Z,19.48
2022-09-03T08:01:20.011Z,19.28
2022-09-03T08:03:48.607Z,19.31
2022-09-03T08:06:16.764Z,19.11
2022-09-03T08:08:45.555Z,19.48
2022-09-03T08:11:17.113Z,19.61
2022-09-03T08:13:45.761Z,19.28
2022-09-03T08:16:15.643Z,19.47
2022-09-03T08:18:42.249Z,19.38
2022-09-03T08:21:12.279Z,19.63
2022-09-03T08:23:39.911Z,19.76
2022-09-03T08:26:07.708Z,19.69
2022-09-03T08:28:35.502Z,19.90
2022-09-03T08:31:10.042Z,20.17
2022-09-03T08:33:40.527Z,20.34
2022-09-03T08:36:18.659Z,20.44
2022-09-03T08:38:46.494Z,19.80
2022-09-03T08:41:24.145Z,20.38
2022-09-03T08:44:03.047Z,20.30
2022-09-03T08:46:41.481Z,20.49
2022-09-03T08:49:11.516Z,20.02
2022-09-03T08:51:40.248Z,20.69
2022-09-03T08:54:09.466Z,20.49
2022-09-03T08:56:39.347Z,20.60
2022-09-03T08:59:05.915Z,20.14
2022-09-03T09:01:55.016Z,20.62
2022-09-03T09:04:32.299Z,20.73
2022-09-03T09:07:17.335Z,20.86
2022-09-03T09:09:49.022Z,21.02
2022-09-03T09:12:42.783Z,21.09
2022-09-03T09:15:27.579Z,21.15
2022-09-03T09:18:04.211Z,20.91
2022-09-03T09:20:45.844Z,20.99
2022-09-03T09:23:20.383Z,20.77
2022-09-03T09:25:50.067Z,20.72
2022-09-03T09:28:20.533Z,20.93
2022-09-03T09:30:48.767Z,21.20
2022-09-03T09:33:16.290Z,20.52
2022-09-03T09:35:43.383Z,20.26
2022-09-03T09:38:10.886Z,20.84
2022-09-03T09:40:45.117Z,20.13
2022-09-03T09:43:21.434Z,20.31
2022-09-03T09:45:49.873Z,20.34
2022-09-03T09:48:31.107Z,20.54
2022-09-03T09:51:06.036Z,20.34
2022-09-03T09:53:32.725Z,19.95
2022-09-03T09:55:59.227Z,20.56
2022-09-03T09:58:28.363Z,20.91
2022-09-03T10:01:13.438Z,21.29
2022-09-03T10:04:00.013Z,21.28
2022-09-03T10:06:47.103Z,20.92
2022-09-03T10:09:18.594Z,20.39
2022-09-03T10:12:14.274Z,20.80
2022-09-03T10:14:46.091Z,20.32
2022-09-03T10:17:19.857Z,20.03
2022-09-03T10:20:15.571Z,19.76
2022-09-03T10:22:56.254Z,20.33
2022-09-03T10:25:28.349Z,20.59
2022-09-03T10:27:56.673Z,20.73
2022-09-03T10:30:26.392Z,20.64
2022-09-03T10:33:16.861Z,20.26
2022-09-03T10:35:52.687Z,20.43
2022-09-03T10:38:29.956Z,20.43
2022-09-03T10:41:26.222Z,20.36
2022-09-03T10:43:58.441Z,20.79
2022-09-03T10:46:29.827Z,20.30
2022-09-03T10:49:35.418Z,19.88
2022-09-03T10:52:09.955Z,20.55
2022-09-03T10:55:06.039Z,20.75
2022-09-03T10:57:54.860Z,20.38
2022-09-03T11:00:22.327Z,20.27
2022-09-03T11:02:54.815Z,20.80
2022-09-03T11:05:24.967Z,21.39
2022-09-03T11:07:55.891Z,21.41
2022-09-03T11:10:30.553Z,21.19
2022-09-03T11:13:03.822Z,20.53
2022-09-03T11:15:34.275Z,20.53
2022-09-03T11:18:36.011Z,20.64
2022-09-03T11:21:08.922Z,20.80
2022-09-03T11:23:42.194Z,21.15
2022-09-03T11:26:12.782Z,20.57
2022-09-03T11:28:58.595Z,21.32
2022-09-03T11:31:38.838Z,20.60
2022-09-03T11:34:14.069Z,20.28
2022-09-03T11:36:50.039Z,20.30
2022-09-03T11:39:35.149Z,20.69
2022-09-03T11:42:09.682Z,20.52
2022-09-03T11:44:51.295Z,20.85
2022-09-03T11:47:45.190Z,21.20
2022-09-03T11:50:30.792Z,21.12
2022-09-03T11:53:36.485Z,21.82
2022-09-03T11:56:06.127Z,21.69
2022-09-03T11:58:34.701Z,21.71
2022-09-03T12:01:03.575Z,21.04
2022-09-03T12:03:49.088Z,20.30
2022-09-03T12:06:34.339Z,20.85
2022-09-03T12:09:39.182Z,21.07
2022-09-03T12:12:57.564Z,21.93
2022-09-03T12:16:01.874Z,21.78
2022-09-03T12:18:31.593Z,22.19
2022-09-03T12:21:00.842Z,22.11
2022-09-03T12:23:44.658Z,22.71
2022-09-03T12:26:15.058Z,22.17
2022-09-03T12:28:44.321Z,22.38
2022-09-03T12:31:24.005Z,21.65
2022-09-03T12:33:51.635Z,21.13
2022-09-03T12:36:18.264Z,20.63
2022-09-03T12:39:10.537Z,20.52
2022-09-03T12:41:32.474Z,20.66
2022-09-03T12:44:00.575Z,21.66
2022-09-03T12:46:34.042Z,21.68
2022-09-03T12:52:05.867Z,21.43
2022-09-03T12:54:34.696Z,21.75
2022-09-03T12:57:01.346Z,21.53
2022-09-03T12:59:29.409Z,22.06
2022-09-03T13:01:58.731Z,21.41
2022-09-03T13:04:36.559Z,21.34
2022-09-03T13:07:13.930Z,20.86
2022-09-03T13:09:41.064Z,20.65
2022-09-03T13:12:08.810Z,21.46
2022-09-03T13:14:47.580Z,21.17
2022-09-03T13:17:28.863Z,21.25
2022-09-03T13:20:29.471Z,21.79
2022-09-03T13:23:29.664Z,20.66
2022-09-03T13:26:23.062Z,21.42
2022-09-03T13:29:15.302Z,21.43
2022-09-03T13:31:49.978Z,21.65
2022-09-03T13:34:25.550Z,21.64
2022-09-03T13:36:56.813Z,22.22
2022-09-03T13:39:41.997Z,22.17
2022-09-03T13:42:29.320Z,21.96
2022-09-03T13:45:33.069Z,22.33
2022-09-03T13:48:28.902Z,22.04
2022-09-03T13:51:03.991Z,21.98
2022-09-03T13:53:39.814Z,22.02
2022-09-03T13:56:16.988Z,22.02
2022-09-03T13:58:48.154Z,21.81
2022-09-03T14:01:39.550Z,21.24
2022-09-03T14:04:15.038Z,21.40
2022-09-03T14:06:52.168Z,21.08
2022-09-03T14:09:18.549Z,21.83
2022-09-03T14:11:59.083Z,21.74
2022-09-03T14:14:37.510Z,21.27
2022-09-03T14:17:09.867Z,21.41
2022-09-03T14:19:47.041Z,20.98
2022-09-03T14:22:46.057Z,20.93
2022-09-03T14:25:16.388Z,20.86
2022-09-03T14:27:43.397Z,20.94
2022-09-03T14:30:41.342Z,20.69
2022-09-03T14:33:24.311Z,20.86
2022-09-03T14:35:58.729Z,20.39
2022-09-03T14:38:50.855Z,20.66
2022-09-03T14:41:37.252Z,20.59
2022-09-03T14:44:17.961Z,20.66
2022-09-03T14:47:03.263Z,20.84
2022-09-03T14:50:04.313Z,20.63
2022-09-03T14:52:48.665Z,20.57
2022-09-03T14:55:23.133Z,20.76
2022-09-03T14:58:25.133Z,20.86
2022-09-03T15:01:39.240Z,21.23
2022-09-03T15:04:25.323Z,21.35
2022-09-03T15:07:01.103Z,20.73
2022-09-03T15:09:32.925Z,20.85
2022-09-03T15:12:24.651Z,21.03
2022-09-03T15:14:55.605Z,20.85
2022-09-03T15:17:26.846Z,20.54
2022-09-03T15:20:19.139Z,20.91
2022-09-03T15:22:51.551Z,20.82
2022-09-03T15:25:27.194Z,20.48
2022-09-03T15:28:34.414Z,20.70
2022-09-03T15:31:33.770Z,20.68
2022-09-03T15:34:18.699Z,21.01
2022-09-03T15:36:54.059Z,20.53
2022-09-03T15:39:26.832Z,20.60
2022-09-03T15:42:24.902Z,20.59
2022-09-03T15:44:54.891Z,20.43
2022-09-03T15:47:50.719Z,20.49
2022-09-03T15:50:38.318Z,20.21
2022-09-03T15:53:34.108Z,20.14
2022-09-03T15:56:20.178Z,20.14
2022-09-03T15:59:15.813Z,20.11
2022-09-03T16:01:54.154Z,20.30
2022-09-03T16:04:58.848Z,19.94
2022-09-03T16:07:37.258Z,19.91
2022-09-03T16:13:04.635Z,19.85
2022-09-03T16:15:43.951Z,19.75
2022-09-03T16:18:57.582Z,19.63
2022-09-03T16:21:36.348Z,19.54
2022-09-03T16:24:16.501Z,19.50
2022-09-03T16:26:54.268Z,19.55
2022-09-03T16:29:30.776Z,19.61
2022-09-03T16:32:21.221Z,19.40
2022-09-03T16:34:56.873Z,19.36
2022-09-03T16:37:48.156Z,19.29
2022-09-03T16:40:37.737Z,19.15
2022-09-03T16:43:40.613Z,19.23
2022-09-03T16:46:29.207Z,19.00
2022-09-03T16:49:13.296Z,19.01
2022-09-03T16:52:26.533Z,19.02
2022-09-03T16:55:00.015Z,18.94
2022-09-03T16:57:57.353Z,18.82
2022-09-03T17:00:28.346Z,18.84
2022-09-03T17:03:26.043Z,18.75
2022-09-03T17:06:15.087Z,18.67
2022-09-03T17:09:19.744Z,18.64
2022-09-03T17:12:02.425Z,18.56
2022-09-03T17:14:39.753Z,18.44
2022-09-03T17:17:33.790Z,18.39
2022-09-03T17:20:04.367Z,18.36
2022-09-03T17:22:55.756Z,18.25
2022-09-03T17:25:29.210Z,18.23
2022-09-03T17:28:27.307Z,18.15
2022-09-03T17:30:58.938Z,18.13
2022-09-03T17:33:50.132Z,17.96
2022-09-03T17:36:18.654Z,18.01
2022-09-03T17:39:03.281Z,17.86
2022-09-03T17:41:35.688Z,17.87
2022-09-03T17:44:14.782Z,17.84
2022-09-03T17:47:12.383Z,17.73
2022-09-03T17:49:52.637Z,17.70
2022-09-03T17:52:32.515Z,17.60
2022-09-03T17:55:25.272Z,17.71
2022-09-03T17:58:00.048Z,17.58
2022-09-03T18:00:55.340Z,17.43
2022-09-03T18:03:33.196Z,17.40
2022-09-03T18:06:23.482Z,17.40
2022-09-03T18:08:57.414Z,17.40
2022-09-03T18:11:40.523Z,17.42
2022-09-03T18:14:29.173Z,17.18
2022-09-03T18:17:04.682Z,17.21
2022-09-03T18:20:14.462Z,17.05
2022-09-03T18:23:18.816Z,17.05
2022-09-03T18:26:07.071Z,16.93
2022-09-03T18:29:02.130Z,16.91
2022-09-03T18:31:47.030Z,16.90
2022-09-03T18:34:32.365Z,16.89
2022-09-03T18:37:17.914Z,16.93
2022-09-03T18:40:05.841Z,16.89
2022-09-03T18:43:26.280Z,16.68
2022-09-03T18:49:45.851Z,16.58
2022-09-03T18:52:37.579Z,16.55
2022-09-03T18:55:32.074Z,16.57
2022-09-03T18:58:26.339Z,16.56
2022-09-03T19:01:15.804Z,16.51
2022-09-03T19:04:16.861Z,16.51
2022-09-03T19:07:27.620Z,16.48
2022-09-03T19:10:19.424Z,16.47
2022-09-03T19:13:27.153Z,16.47
2022-09-03T19:16:31.526Z,16.43
2022-09-03T19:19:26.151Z,16.48
2022-09-03T19:22:15.015Z,16.45
2022-09-03T19:25:00.100Z,16.38
2022-09-03T19:28:06.812Z,16.40
2022-09-03T19:31:03.539Z,16.34
2022-09-03T19:34:00.880Z,16.32
2022-09-03T19:37:03.045Z,16.32
2022-09-03T19:40:15.579Z,16.34
2022-09-03T19:43:09.801Z,16.32
2022-09-03T19:45:59.551Z,16.35
2022-09-03T19:48:59.545Z,16.29
2022-09-03T19:52:28.306Z,16.35
2022-09-03T19:55:16.672Z,16.30
2022-09-03T19:58:32.201Z,16.24
2022-09-03T20:01:18.769Z,16.16
2022-09-03T20:04:03.826Z,16.20
2022-09-03T20:06:52.194Z,16.23
2022-09-03T20:09:39.263Z,16.16
2022-09-03T20:12:10.429Z,16.22
2022-09-03T20:14:37.459Z,16.22
2022-09-03T20:17:18.866Z,16.12
2022-09-03T20:20:10.928Z,16.15
2022-09-03T20:22:40.437Z,16.14
2022-09-03T20:25:20.379Z,16.07
2022-09-03T20:27:46.811Z,16.07
2022-09-03T20:30:28.215Z,15.93
2022-09-03T20:33:39.395Z,16.04
2022-09-03T20:36:17.501Z,16.01
2022-09-03T20:38:58.724Z,16.11
2022-09-03T20:41:37.242Z,15.99
2022-09-03T20:44:25.644Z,15.94
2022-09-03T20:47:11.966Z,15.93
2022-09-03T20:50:06.626Z,15.87
2022-09-03T20:52:47.174Z,15.92
2022-09-03T20:55:21.771Z,15.94
2022-09-03T20:58:22.583Z,15.92
2022-09-03T21:01:05.719Z,15.88
2022-09-03T21:04:09.442Z,15.70
2022-09-03T21:06:48.451Z,15.61
2022-09-03T21:09:14.903Z,15.65
2022-09-03T21:11:48.242Z,15.87
2022-09-03T21:14:34.837Z,15.72
2022-09-03T21:17:26.155Z,15.77
2022-09-03T21:20:18.164Z,15.80
2022-09-03T21:23:06.474Z,15.61
2022-09-03T21:25:42.788Z,15.54
2022-09-03T21:28:22.314Z,15.58
2022-09-03T21:31:01.274Z,15.58
2022-09-03T21:33:39.073Z,15.63
2022-09-03T21:36:42.125Z,15.51
2022-09-03T21:39:20.139Z,15.43
2022-09-03T21:42:12.299Z,15.41
2022-09-03T21:44:47.357Z,15.42
2022-09-03T21:47:16.179Z,15.30
2022-09-03T21:50:01.265Z,15.45
2022-09-03T21:52:34.678Z,15.28
2022-09-03T21:55:02.806Z,15.27
2022-09-03T21:57:44.151Z,15.22
2022-09-03T22:00:18.036Z,15.20
2022-09-03T22:02:46.559Z,15.17
2022-09-03T22:05:14.715Z,15.31
2022-09-03T22:07:56.255Z,15.43
2022-09-03T22:10:25.814Z,15.37
2022-09-03T22:13:29.943Z,15.32
2022-09-03T22:16:23.283Z,15.27
2022-09-03T22:18:50.317Z,15.05
2022-09-03T22:22:04.635Z,15.19
2022-09-03T22:24:47.954Z,15.12
2022-09-03T22:27:22.306Z,14.97
2022-09-03T22:30:08.634Z,14.98
2022-09-03T22:32:44.156Z,14.95
2022-09-03T22:35:38.748Z,15.05
2022-09-03T22:38:31.878Z,15.07
2022-09-03T22:41:02.672Z,14.97
2022-09-03T22:43:37.587Z,15.07
2022-09-03T22:46:05.543Z,15.08
2022-09-03T22:49:09.817Z,15.20
2022-09-03T22:52:04.134Z,15.11
2022-09-03T22:55:12.109Z,15.07
2022-09-03T22:57:46.337Z,15.12
2022-09-03T23:00:13.113Z,15.07
2022-09-03T23:02:40.212Z,15.12
2022-09-03T23:05:30.505Z,15.21
2022-09-03T23:08:09.579Z,15.15
2022-09-03T23:10:42.850Z,15.12
2022-09-03T23:13:22.239Z,15.08
2022-09-03T23:16:18.792Z,15.01
2022-09-03T23:18:48.288Z,15.06
2022-09-03T23:21:25.466Z,15.03
2022-09-03T23:24:14.554Z,15.00
2022-09-03T23:26:42.872Z,14.92
2022-09-03T23:29:13.510Z,14.99
2022-09-03T23:31:40.104Z,14.89
2022-09-03T23:34:08.938Z,14.87
2022-09-03T23:37:29.630Z,14.87
2022-09-03T23:39:49.389Z,14.75
2022-09-03T23:42:31.616Z,14.75
2022-09-03T23:45:15.718Z,14.80
2022-09-03T23:47:59.147Z,14.88
2022-09-03T23:50:31.796Z,14.89
2022-09-03T23:53:11.037Z,14.89
2022-09-03T23:55:45.796Z,14.85
2022-09-03T23:59:02.523Z,14.89
